createdAt,value
2023-03-24T00:03:25.717Z,16.50
2023-03-24T00:21:18.394Z,16.40
2023-03-24T00:26:24.861Z,16.30
2023-03-24T00:31:28.506Z,16.30
2023-03-24T00:36:33.270Z,16.30
2023-03-24T00:41:36.631Z,16.20
2023-03-24T00:46:40.297Z,16.20
2023-03-24T00:51:45.669Z,16.20
2023-03-24T00:56:49.904Z,16.10
2023-03-24T01:01:53.365Z,16.10
2023-03-24T01:06:59.307Z,16.10
2023-03-24T01:12:03.327Z,16.00
2023-03-24T01:17:08.017Z,16.00
2023-03-24T01:22:12.761Z,16.00
2023-03-24T01:27:16.472Z,16.00
2023-03-24T01:32:20.139Z,15.90
2023-03-24T01:37:25.028Z,16.00
2023-03-24T01:42:29.523Z,16.00
2023-03-24T01:47:35.169Z,16.10
2023-03-24T01:52:42.566Z,16.10
2023-03-24T01:57:48.722Z,16.00
2023-03-24T02:02:58.737Z,16.00
2023-03-24T02:08:08.324Z,16.00
2023-03-24T02:13:13.250Z,16.00
2023-03-24T02:18:25.685Z,16.00
2023-03-24T02:23:55.699Z,16.00
2023-03-24T02:29:13.310Z,16.00
2023-03-24T02:34:50.663Z,15.90
2023-03-24T02:40:11.539Z,16.00
2023-03-24T02:45:26.275Z,16.00
2023-03-24T02:50:32.659Z,16.00
2023-03-24T02:55:45.233Z,16.00
2023-03-24T03:00:59.616Z,16.00
2023-03-24T03:06:07.481Z,16.00
2023-03-24T03:11:16.162Z,16.00
2023-03-24T03:16:25.802Z,16.00
2023-03-24T03:21:32.813Z,16.10
2023-03-24T03:26:38.020Z,16.10
2023-03-24T03:31:45.050Z,16.10
2023-03-24T03:36:55.254Z,16.10
2023-03-24T03:42:00.671Z,16.10
2023-03-24T03:47:04.373Z,16.10
2023-03-24T03:52:08.056Z,16.00
2023-03-24T03:57:14.434Z,16.00
2023-03-24T04:02:29.454Z,16.00
2023-03-24T04:07:40.703Z,16.00
2023-03-24T04:13:01.936Z,15.90
2023-03-24T04:18:26.957Z,15.90
2023-03-24T04:23:40.913Z,15.90
2023-03-24T04:28:58.146Z,15.90
2023-03-24T04:34:06.686Z,15.90
2023-03-24T04:39:13.887Z,15.90
2023-03-24T04:44:21.908Z,15.80
2023-03-24T04:49:27.303Z,15.80
2023-03-24T04:54:31.131Z,15.80
2023-03-24T04:59:36.164Z,15.80
2023-03-24T05:04:40.085Z,15.80
2023-03-24T05:09:43.707Z,15.80
2023-03-24T05:14:48.465Z,15.80
2023-03-24T05:19:52.197Z,15.80
2023-03-24T05:24:55.720Z,15.80
2023-03-24T05:30:00.497Z,15.90
2023-03-24T05:35:04.699Z,15.90
2023-03-24T05:40:09.554Z,15.90
2023-03-24T05:45:14.520Z,15.90
2023-03-24T05:50:18.021Z,15.90
2023-03-24T05:55:22.946Z,15.90
2023-03-24T06:00:28.130Z,15.80
2023-03-24T06:05:34.434Z,15.70
2023-03-24T06:10:37.863Z,15.80
2023-03-24T06:15:48.036Z,15.80
2023-03-24T06:20:56.511Z,15.80
2023-03-24T06:26:01.453Z,15.90
2023-03-24T06:31:14.912Z,15.90
2023-03-24T06:36:19.309Z,16.00
2023-03-24T06:41:23.068Z,16.00
2023-03-24T06:46:27.975Z,16.10
2023-03-24T06:51:31.377Z,16.10
2023-03-24T06:56:35.264Z,16.20
2023-03-24T07:01:40.169Z,16.20
2023-03-24T07:07:00.912Z,16.30
2023-03-24T07:12:09.230Z,16.30
2023-03-24T07:17:14.335Z,16.40
2023-03-24T07:22:18.276Z,16.40
2023-03-24T07:27:21.985Z,16.40
2023-03-24T07:32:28.739Z,16.50
2023-03-24T07:37:32.197Z,16.50
2023-03-24T07:42:36.512Z,16.50
2023-03-24T07:47:45.444Z,16.60
2023-03-24T07:52:50.535Z,16.60
2023-03-24T07:57:54.313Z,16.60
2023-03-24T08:03:00.197Z,16.60
2023-03-24T08:08:06.754Z,16.60
2023-03-24T08:13:11.482Z,16.60
2023-03-24T08:18:17.879Z,16.60
2023-03-24T08:23:22.667Z,16.60
2023-03-24T08:42:33.868Z,16.50
2023-03-24T08:47:37.315Z,16.70
2023-03-24T08:52:41.979Z,16.90
2023-03-24T08:57:47.022Z,17.00
2023-03-24T09:02:52.439Z,17.10
2023-03-24T09:08:29.988Z,17.10
2023-03-24T09:13:34.983Z,17.10
2023-03-24T09:18:38.496Z,17.10
2023-03-24T09:23:42.366Z,17.20
2023-03-24T09:28:47.312Z,17.20
2023-03-24T09:33:51.073Z,17.40
2023-03-24T09:38:54.766Z,17.60
2023-03-24T09:44:04.682Z,17.70
2023-03-24T09:49:13.066Z,17.80
2023-03-24T09:54:27.761Z,17.90
2023-03-24T09:59:37.131Z,18.00
2023-03-24T10:04:40.722Z,18.10
2023-03-24T10:09:49.641Z,18.30
2023-03-24T10:15:05.634Z,18.30
2023-03-24T10:20:21.191Z,18.40
2023-03-24T10:25:30.528Z,18.50
2023-03-24T10:30:38.130Z,18.60
2023-03-24T10:35:45.630Z,18.80
2023-03-24T10:40:50.411Z,18.90
2023-03-24T10:45:58.396Z,19.00
2023-03-24T10:51:02.613Z,19.10
2023-03-24T10:56:06.840Z,19.20
2023-03-24T11:01:24.391Z,19.30
2023-03-24T11:06:28.648Z,19.30
2023-03-24T11:11:33.051Z,19.30
2023-03-24T11:16:44.226Z,19.30
2023-03-24T11:21:48.896Z,19.30
2023-03-24T11:26:58.734Z,19.30
2023-03-24T11:32:12.044Z,19.30
2023-03-24T11:37:20.128Z,19.40
2023-03-24T11:42:28.642Z,19.40
2023-03-24T11:47:35.301Z,19.40
2023-03-24T11:52:45.036Z,19.40
2023-03-24T11:57:57.417Z,19.40
2023-03-24T12:03:33.098Z,19.50
2023-03-24T12:08:48.514Z,19.50
2023-03-24T12:13:52.721Z,19.60
2023-03-24T12:19:14.511Z,19.60
2023-03-24T12:24:29.428Z,19.60
2023-03-24T12:29:49.788Z,19.60
2023-03-24T12:35:15.562Z,19.60
2023-03-24T12:40:48.679Z,19.60
2023-03-24T12:45:55.061Z,19.60
2023-03-24T12:51:12.150Z,19.70
2023-03-24T12:56:19.393Z,19.70
2023-03-24T13:01:29.479Z,19.80
2023-03-24T13:06:42.099Z,19.80
2023-03-24T13:11:54.015Z,19.80
2023-03-24T13:17:05.477Z,19.80
2023-03-24T13:22:16.730Z,19.80
2023-03-24T13:27:24.753Z,19.80
2023-03-24T13:51:56.936Z,19.70
2023-03-24T13:57:06.335Z,19.70
2023-03-24T14:02:46.966Z,19.60
2023-03-24T17:46:39.736Z,16.90
2023-03-24T17:51:43.854Z,17.10
2023-03-24T17:56:50.056Z,17.30
2023-03-24T18:01:55.120Z,17.00
2023-03-24T18:06:59.485Z,16.40
2023-03-24T18:12:03.151Z,16.00
2023-03-24T18:17:09.735Z,15.90
2023-03-24T18:22:14.171Z,15.90
2023-03-24T18:27:17.768Z,15.70
2023-03-24T18:32:23.849Z,15.70
2023-03-24T18:37:28.118Z,15.60
2023-03-24T18:42:31.911Z,15.30
2023-03-24T18:47:37.577Z,15.00
2023-03-24T18:52:42.140Z,14.60
2023-03-24T18:57:45.893Z,14.60
2023-03-24T19:02:52.534Z,14.70
2023-03-24T19:07:56.434Z,14.80
2023-03-24T19:13:00.128Z,14.90
2023-03-24T19:18:05.373Z,15.00
2023-03-24T19:23:09.296Z,15.10
2023-03-24T19:28:14.945Z,15.20
2023-03-24T19:33:21.352Z,15.30
2023-03-24T19:38:25.150Z,15.30
2023-03-24T19:43:28.656Z,15.40
2023-03-24T19:48:33.782Z,15.40
2023-03-24T19:53:37.504Z,15.40
2023-03-24T19:58:41.301Z,15.50
2023-03-24T20:03:46.455Z,15.40
2023-03-24T20:08:53.201Z,15.30
2023-03-24T20:13:57.485Z,15.20
2023-03-24T20:19:02.246Z,15.10
2023-03-24T20:24:06.258Z,15.10
2023-03-24T20:29:09.810Z,15.00
2023-03-24T20:34:14.899Z,15.00
2023-03-24T20:39:19.157Z,14.90
2023-03-24T20:44:22.565Z,14.90
2023-03-24T20:49:27.526Z,14.90
2023-03-24T20:54:31.664Z,14.70
2023-03-24T20:59:35.618Z,14.70
2023-03-24T21:04:40.443Z,14.80
2023-03-24T21:09:43.940Z,14.70
2023-03-24T21:14:47.555Z,14.40
2023-03-24T21:19:54.669Z,14.20
2023-03-24T21:24:59.396Z,14.10
2023-03-24T21:30:02.970Z,13.90
2023-03-24T21:35:09.180Z,13.90
2023-03-24T21:40:13.942Z,13.90
2023-03-24T21:45:19.224Z,13.70
2023-03-24T21:50:24.184Z,13.50
2023-03-24T21:55:27.960Z,13.40
2023-03-24T22:00:35.364Z,13.40
2023-03-24T22:05:42.004Z,13.40
2023-03-24T22:10:45.929Z,13.40
2023-03-24T22:15:54.904Z,13.50
2023-03-24T22:21:03.632Z,13.50
2023-03-24T22:26:09.529Z,13.40
2023-03-24T22:31:14.919Z,13.30
2023-03-24T22:36:19.926Z,13.30
2023-03-24T22:41:23.830Z,13.20
2023-03-24T22:46:27.294Z,13.20
2023-03-24T22:51:32.787Z,13.20
2023-03-24T22:56:36.278Z,13.10
2023-03-24T23:01:39.943Z,13.00
2023-03-24T23:06:45.423Z,13.00
2023-03-24T23:11:48.806Z,12.90
2023-03-24T23:16:54.334Z,13.00
2023-03-24T23:21:59.737Z,13.00
2023-03-24T23:27:04.622Z,12.90
2023-03-24T23:32:08.698Z,12.90
2023-03-24T23:37:14.279Z,12.90
2023-03-24T23:42:18.054Z,12.80
2023-03-24T23:47:21.675Z,12.70
2023-03-24T23:52:26.503Z,12.70
2023-03-24T23:57:32.186Z,12.70
